Time;durP1;ratioP1;P1;durP2;ratioP2;P2;SDS_P1;SDS_P2;PMS_P1;PMS_P2;Temp;Humidity;BMP_temperature;BMP_pressure;BME280_temperature;BME280_humidity;BME280_pressure;Samples;Min_cycle;Max_cycle;Signal;HPM_P1;HPM_P2
2021/12/10 00:00:32;;;;;;;7.45;6.28;;;;;;;9.81;53.38;99757.73;1703518;83;21035;-63
2021/12/10 00:03:00;;;;;;;7.10;6.40;;;;;;;9.82;53.37;99758.55;1693891;83;21003;-62
2021/12/10 00:05:31;;;;;;;7.30;6.40;;;;;;;9.82;53.37;99758.05;1716435;83;21563;-62
2021/12/10 00:07:58;;;;;;;6.83;5.97;;;;;;;9.83;53.37;99750.91;1707591;82;21144;-63
2021/12/10 00:10:30;;;;;;;6.55;5.72;;;;;;;9.83;53.36;99750.91;1725116;83;20995;-64
2021/12/10 00:12:57;;;;;;;7.37;6.55;;;;;;;9.82;53.37;99751.92;1720334;82;21165;-64
2021/12/10 00:15:26;;;;;;;7.33;6.00;;;;;;;9.83;53.36;99768.16;1704767;82;21054;-63
2021/12/10 00:17:53;;;;;;;6.75;5.92;;;;;;;9.83;53.36;99762.84;1711501;83;21054;-63
2021/12/10 00:22:42;;;;;;;6.97;6.28;;;;;;;9.88;53.38;99759.72;1864202;75;28297;-63
2021/12/10 00:25:18;;;;;;;6.87;6.00;;;;;;;9.81;53.44;99760.86;1812501;77;21458;-63
2021/12/10 00:27:46;;;;;;;7.25;5.95;;;;;;;9.82;53.43;99763.35;1817092;78;21134;-63
2021/12/10 00:30:19;;;;;;;6.70;6.03;;;;;;;9.82;53.43;99773.97;1822736;78;21568;-63
2021/12/10 00:32:50;;;;;;;7.00;6.05;;;;;;;9.82;53.43;99769.16;1819123;78;21027;-64
2021/12/10 00:35:21;;;;;;;6.28;5.67;;;;;;;9.82;53.43;99769.98;1803265;77;21305;-64
2021/12/10 00:37:48;;;;;;;7.72;6.85;;;;;;;9.82;53.44;99769.98;1823319;78;21068;-63
2021/12/10 00:40:16;;;;;;;6.87;6.17;;;;;;;9.83;53.45;99770.80;1819949;77;21128;-63
2021/12/10 00:42:42;;;;;;;6.37;5.40;;;;;;;9.83;53.44;99772.13;1819357;78;21474;-63
2021/12/10 00:45:12;;;;;;;7.83;6.58;;;;;;;9.84;53.45;99760.54;1799752;77;20998;-63
2021/12/10 00:47:38;;;;;;;7.30;6.42;;;;;;;9.84;53.46;99760.54;1802360;78;20986;-64
2021/12/10 00:50:08;;;;;;;6.35;5.67;;;;;;;9.84;53.46;99757.89;1830975;77;21628;-63
2021/12/10 00:52:35;;;;;;;6.33;5.72;;;;;;;9.84;53.46;99759.22;1834788;77;21103;-62
2021/12/10 00:55:01;;;;;;;7.22;6.10;;;;;;;9.84;53.45;99761.36;1817831;77;21505;-62
2021/12/10 00:57:27;;;;;;;6.65;5.67;;;;;;;9.85;53.46;99755.58;1822720;78;21031;-62
2021/12/10 00:59:54;;;;;;;6.03;5.20;;;;;;;9.86;53.47;99755.08;1817065;77;20974;-62
2021/12/10 01:02:23;;;;;;;6.75;6.05;;;;;;;9.86;53.47;99751.09;1809243;78;20999;-63
2021/12/10 01:04:54;;;;;;;6.62;5.87;;;;;;;9.86;53.46;99742.63;1804598;77;21062;-62
2021/12/10 01:07:28;;;;;;;6.37;5.58;;;;;;;9.87;53.44;99747.44;1805549;78;21030;-62
2021/12/10 01:09:57;;;;;;;6.03;5.42;;;;;;;9.86;53.46;99746.61;1820435;78;21103;-63
2021/12/10 01:12:33;;;;;;;6.58;5.90;;;;;;;9.87;53.44;99738.15;1805348;77;21076;-62
2021/12/10 01:15:22;;;;;;;6.87;5.60;;;;;;;9.87;53.45;99740.33;1804447;78;20989;-64
2021/12/10 01:26:25;;;;;;;6.10;5.50;;;;;;;9.86;53.49;99720.08;1823101;78;21560;-63
2021/12/10 01:28:42;;;;;;;5.70;5.12;;;;;;;9.85;53.51;99710.48;1805478;77;20983;-63
2021/12/10 01:31:09;;;;;;;7.25;5.97;;;;;;;9.85;53.52;99713.13;1814829;78;21144;-62
2021/12/10 01:33:37;;;;;;;6.30;5.70;;;;;;;9.86;53.54;99716.61;1820295;78;21543;-63
2021/12/10 01:36:07;;;;;;;5.58;5.03;;;;;;;9.86;53.54;99721.91;1806648;78;21005;-63
2021/12/10 01:38:32;;;;;;;5.83;5.22;;;;;;;9.87;53.54;99727.53;1805794;77;21051;-61
2021/12/10 01:41:00;;;;;;;6.17;5.58;;;;;;;9.87;53.53;99715.12;1794658;78;20985;-63
2021/12/10 01:43:33;;;;;;;5.62;5.00;;;;;;;9.87;53.54;99708.96;1811818;78;21479;-62
2021/12/10 01:46:06;;;;;;;5.83;5.20;;;;;;;9.87;53.54;99705.83;1807437;78;21035;-63
2021/12/10 01:48:36;;;;;;;5.70;4.97;;;;;;;9.88;53.54;99700.02;1813163;77;20998;-63
2021/12/10 01:51:03;;;;;;;6.53;5.53;;;;;;;9.88;53.54;99696.86;1816279;78;21608;-63
2021/12/10 01:53:32;;;;;;;5.28;4.78;;;;;;;9.89;53.54;99702.52;1802289;78;21011;-63
2021/12/10 01:56:03;;;;;;;6.28;5.62;;;;;;;9.89;53.53;99689.72;1820575;77;21142;-63
2021/12/10 01:58:30;;;;;;;5.10;4.62;;;;;;;9.90;53.53;99688.23;1809715;78;21199;-63
2021/12/10 02:01:06;;;;;;;5.70;5.15;;;;;;;9.91;53.53;99688.59;1803260;78;21058;-63
2021/12/10 02:03:33;;;;;;;6.00;5.20;;;;;;;9.91;53.53;99689.91;1794003;77;21061;-63
2021/12/10 02:06:00;;;;;;;5.80;5.20;;;;;;;9.91;53.52;99679.30;1757187;80;21022;-63
2021/12/10 02:08:26;;;;;;;5.55;4.87;;;;;;;9.92;53.51;99684.92;1786961;80;21034;-63
2021/12/10 02:10:53;;;;;;;5.75;5.00;;;;;;;9.93;53.53;99689.72;1787609;79;20997;-63
2021/12/10 02:13:20;;;;;;;5.92;5.10;;;;;;;9.93;53.51;99693.70;1772023;81;20987;-64
2021/12/10 02:15:46;;;;;;;5.92;5.33;;;;;;;9.94;53.52;99690.89;1757577;80;21603;-63
2021/12/10 02:18:13;;;;;;;5.22;4.72;;;;;;;9.94;53.52;99694.88;1758894;80;21025;-63
2021/12/10 02:21:09;;;;;;;5.20;4.62;;;;;;;9.96;53.51;99700.02;1774104;80;21977;-63
2021/12/10 02:23:45;;;;;;;6.25;5.55;;;;;;;9.97;53.50;99704.34;1780087;80;21088;-63
2021/12/10 02:26:13;;;;;;;5.90;5.10;;;;;;;9.96;53.53;99700.02;1779123;80;21093;-64
2021/12/10 02:28:40;;;;;;;5.28;4.78;;;;;;;9.96;53.51;99701.34;1781624;80;21002;-64
2021/12/10 02:31:08;;;;;;;6.08;5.10;;;;;;;9.96;53.53;99706.15;1780789;80;21564;-64
2021/12/10 02:33:35;;;;;;;5.53;4.78;;;;;;;9.96;53.55;99696.86;1762310;80;21138;-62
2021/12/10 02:36:03;;;;;;;6.00;4.90;;;;;;;9.98;53.54;99708.64;1771147;79;21071;-63
2021/12/10 02:38:29;;;;;;;5.92;5.15;;;;;;;9.98;53.54;99708.14;1755089;80;21018;-63
2021/12/10 02:40:55;;;;;;;5.85;4.90;;;;;;;9.99;53.53;99705.02;1769353;80;21041;-64
2021/12/10 02:43:23;;;;;;;6.03;5.10;;;;;;;9.99;53.53;99701.84;1767478;80;21248;-63
2021/12/10 02:45:53;;;;;;;6.20;4.80;;;;;;;9.90;53.52;99685.58;1754657;80;21059;-64
2021/12/10 02:48:21;;;;;;;5.65;4.97;;;;;;;10.01;53.53;99704.34;1753046;80;21065;-64
2021/12/10 02:50:47;;;;;;;6.00;5.03;;;;;;;10.00;53.53;99703.49;1756847;81;21091;-63
2021/12/10 02:53:16;;;;;;;5.30;4.60;;;;;;;10.02;53.53;99699.35;1758339;80;21602;-63
2021/12/10 02:55:43;;;;;;;5.40;4.90;;;;;;;10.02;53.52;99700.20;1746931;81;21057;-64
2021/12/10 02:58:12;;;;;;;5.15;4.70;;;;;;;10.03;53.52;99701.84;1759904;80;22292;-64
2021/12/10 03:00:47;;;;;;;5.83;4.95;;;;;;;10.01;53.52;99706.49;1745947;80;21502;-63
2021/12/10 03:03:13;;;;;;;6.10;4.78;;;;;;;10.04;53.52;99704.84;1762109;80;21552;-63
2021/12/10 03:05:41;;;;;;;6.00;5.28;;;;;;;10.04;53.51;99699.54;1753635;80;20998;-63
2021/12/10 03:08:08;;;;;;;6.50;5.30;;;;;;;10.04;53.54;99698.21;1766896;80;21300;-62
2021/12/10 03:10:35;;;;;;;6.75;5.62;;;;;;;10.06;53.54;99695.87;1780940;80;21110;-64
2021/12/10 03:13:01;;;;;;;6.15;5.30;;;;;;;10.08;53.53;99704.50;1748169;80;21053;-63
2021/12/10 03:15:29;;;;;;;5.00;4.50;;;;;;;10.08;53.52;99703.17;1772734;80;21046;-63
2021/12/10 03:17:56;;;;;;;5.70;5.10;;;;;;;10.08;53.52;99696.03;1741314;80;21020;-64
2021/12/10 03:20:27;;;;;;;5.22;4.70;;;;;;;10.09;53.52;99704.84;1752874;80;21112;-63
2021/12/10 03:22:54;;;;;;;5.95;4.95;;;;;;;10.10;53.53;99709.14;1759319;80;21894;-63
2021/12/10 03:25:20;;;;;;;5.75;4.87;;;;;;;10.00;53.53;99695.53;1760973;80;21075;-62
2021/12/10 03:27:47;;;;;;;5.33;4.83;;;;;;;10.12;53.52;99719.09;1767236;80;21069;-63
2021/12/10 03:30:21;;;;;;;5.45;4.60;;;;;;;10.11;53.53;99716.95;1773704;80;21034;-63
2021/12/10 03:32:48;;;;;;;5.85;4.45;;;;;;;10.12;53.53;99717.77;1757641;80;21021;-62
2021/12/10 03:35:20;;;;;;;6.53;5.22;;;;;;;10.12;53.56;99723.93;1746340;80;21757;-62
2021/12/10 03:37:46;;;;;;;5.65;4.78;;;;;;;10.12;53.56;99715.97;1739565;80;21529;-63
2021/12/10 03:40:14;;;;;;;6.08;4.85;;;;;;;10.13;53.55;99714.95;1753498;80;21047;-63
2021/12/10 03:42:41;;;;;;;5.85;5.25;;;;;;;10.13;53.56;99700.36;1725731;82;21040;-64
2021/12/10 03:45:08;;;;;;;5.58;4.78;;;;;;;10.13;53.55;99705.66;1799963;78;20990;-62
2021/12/10 03:47:35;;;;;;;5.87;5.20;;;;;;;10.15;53.56;99716.12;1804776;78;21147;-62
2021/12/10 03:50:04;;;;;;;6.83;5.75;;;;;;;10.15;53.57;99711.63;1789292;77;21328;-64
2021/12/10 03:52:31;;;;;;;6.22;5.08;;;;;;;10.16;53.60;99703.16;1788395;78;20974;-63
2021/12/10 03:54:59;;;;;;;5.67;5.05;;;;;;;10.17;53.58;99704.84;1804608;78;21100;-63
2021/12/10 03:57:26;;;;;;;5.30;4.80;;;;;;;10.18;53.58;99707.84;1795741;78;21065;-62
2021/12/10 03:59:52;;;;;;;5.72;4.83;;;;;;;10.18;53.58;99711.82;1819994;77;21943;-63
2021/12/10 04:02:19;;;;;;;5.78;5.25;;;;;;;10.18;53.57;99707.33;1817739;77;20992;-64
2021/12/10 04:04:48;;;;;;;6.15;4.80;;;;;;;10.19;53.59;99721.42;1803378;77;21013;-63
2021/12/10 04:07:23;;;;;;;5.10;4.45;;;;;;;10.19;53.59;99724.08;1802727;78;21038;-63
2021/12/10 04:09:50;;;;;;;5.80;5.22;;;;;;;10.20;53.59;99716.47;1748292;81;21009;-63
2021/12/10 04:12:17;;;;;;;6.65;5.37;;;;;;;10.20;53.59;99725.25;1785819;78;21134;-63
2021/12/10 04:14:46;;;;;;;6.05;5.25;;;;;;;10.21;53.58;99730.05;1809895;78;21526;-63
2021/12/10 04:17:12;;;;;;;6.37;5.78;;;;;;;10.21;53.60;99726.07;1805995;77;21522;-62
2021/12/10 04:19:39;;;;;;;6.67;5.28;;;;;;;10.21;53.58;99715.45;1789120;78;20990;-61
2021/12/10 04:22:08;;;;;;;5.62;5.10;;;;;;;10.22;53.60;99723.26;1812989;78;21821;-62
2021/12/10 04:24:36;;;;;;;5.78;5.20;;;;;;;10.22;53.59;99706.00;1786885;79;21978;-63
2021/12/10 04:27:04;;;;;;;5.87;5.17;;;;;;;10.23;53.62;99707.64;1792336;78;21045;-63
2021/12/10 04:29:31;;;;;;;5.90;5.03;;;;;;;10.23;53.59;99708.97;1729138;81;21100;-63
2021/12/10 04:31:57;;;;;;;6.67;5.37;;;;;;;10.24;53.61;99709.82;1743105;81;21021;-65
2021/12/10 04:34:24;;;;;;;6.05;5.28;;;;;;;10.24;53.62;99719.94;1744803;81;21097;-62
2021/12/10 04:36:52;;;;;;;5.95;5.35;;;;;;;10.23;53.63;99714.28;1766801;81;21139;-62
2021/12/10 04:39:19;;;;;;;6.40;5.75;;;;;;;10.24;53.62;99708.49;1751683;80;21561;-62
2021/12/10 04:41:45;;;;;;;6.45;5.70;;;;;;;10.24;53.64;99706.66;1756627;79;21030;-63
2021/12/10 04:44:12;;;;;;;6.75;6.05;;;;;;;10.24;53.65;99696.55;1742206;81;21462;-63
2021/12/10 04:46:38;;;;;;;6.28;5.15;;;;;;;10.26;53.66;99706.97;1759867;80;21047;-62
2021/12/10 04:49:10;;;;;;;5.87;5.28;;;;;;;10.25;53.67;99712.79;1746502;80;21716;-62
2021/12/10 04:51:41;;;;;;;6.47;5.85;;;;;;;10.26;53.67;99702.99;1742645;81;21033;-63
2021/12/10 04:54:08;;;;;;;5.83;5.08;;;;;;;10.26;53.68;99695.87;1753502;81;21058;-62
2021/12/10 04:56:35;;;;;;;5.40;4.90;;;;;;;10.27;53.68;99696.19;1747182;81;21030;-64
2021/12/10 04:59:04;;;;;;;6.75;6.05;;;;;;;10.28;53.68;99699.70;1758378;80;21079;-62
2021/12/10 05:01:30;;;;;;;6.15;5.45;;;;;;;10.29;53.69;99698.69;1771739;81;21099;-63
2021/12/10 05:03:57;;;;;;;6.17;5.40;;;;;;;10.29;53.72;99700.02;1756647;81;21574;-63
2021/12/10 05:06:23;;;;;;;6.08;5.33;;;;;;;10.28;53.72;99700.52;1746311;80;21049;-63
2021/12/10 05:08:50;;;;;;;6.85;5.85;;;;;;;10.28;53.70;99695.22;1767792;81;22082;-63
2021/12/10 05:11:16;;;;;;;6.08;4.95;;;;;;;10.29;53.72;99700.84;1771537;80;21091;-63
2021/12/10 05:13:44;;;;;;;6.55;5.60;;;;;;;10.29;53.71;99704.82;1753000;81;21102;-63
2021/12/10 05:16:11;;;;;;;6.25;5.65;;;;;;;10.29;53.74;99696.86;1754762;80;21186;-62
2021/12/10 05:18:40;;;;;;;6.30;5.55;;;;;;;10.30;53.73;99698.56;1747951;81;21052;-62
2021/12/10 05:21:08;;;;;;;6.22;5.60;;;;;;;10.31;53.72;99704.19;1771952;81;21078;-63
2021/12/10 05:23:35;;;;;;;7.10;5.75;;;;;;;10.32;53.71;99706.36;1761846;80;21276;-64
2021/12/10 05:26:01;;;;;;;7.03;5.65;;;;;;;10.31;53.73;99712.15;1765904;80;21116;-63
2021/12/10 05:28:28;;;;;;;7.05;5.62;;;;;;;10.33;53.76;99711.98;1767989;80;20982;-62
2021/12/10 05:30:56;;;;;;;6.45;5.65;;;;;;;10.32;53.74;99703.70;1762850;80;21108;-63
2021/12/10 05:33:24;;;;;;;6.97;5.87;;;;;;;10.32;53.74;99719.13;1755166;80;21092;-62
2021/12/10 05:35:51;;;;;;;6.60;5.55;;;;;;;10.33;53.74;99711.48;1754196;80;21033;-64
2021/12/10 05:38:19;;;;;;;6.55;5.78;;;;;;;10.32;53.75;99720.97;1773017;80;21126;-64
2021/12/10 05:40:48;;;;;;;6.87;6.00;;;;;;;10.33;53.76;99722.61;1759017;79;21596;-63
2021/12/10 05:43:14;;;;;;;6.37;5.78;;;;;;;10.33;53.76;99722.11;1786103;79;21538;-64
2021/12/10 05:45:41;;;;;;;7.25;6.50;;;;;;;10.33;53.76;99726.09;1752585;80;21048;-63
2021/12/10 05:48:07;;;;;;;6.95;6.25;;;;;;;10.34;53.77;99734.91;1756991;80;21521;-63
2021/12/10 05:50:34;;;;;;;6.30;5.70;;;;;;;10.35;53.77;99747.17;1765077;80;21105;-63
2021/12/10 05:53:01;;;;;;;7.05;6.05;;;;;;;10.35;53.76;99740.05;1768472;80;21509;-63
2021/12/10 05:55:27;;;;;;;6.50;5.80;;;;;;;10.36;53.78;99744.36;1773544;80;21045;-63
2021/12/10 05:57:53;;;;;;;6.35;5.75;;;;;;;10.35;53.77;99737.88;1778769;80;21050;-62
2021/12/10 06:00:26;;;;;;;6.50;5.80;;;;;;;10.35;53.78;99734.75;1772104;80;21238;-63
2021/12/10 06:02:52;;;;;;;6.20;5.60;;;;;;;10.37;53.78;99746.50;1778280;80;22422;-62
2021/12/10 06:05:19;;;;;;;7.58;6.62;;;;;;;10.37;53.80;99740.72;1751120;80;21203;-62
2021/12/10 06:07:46;;;;;;;8.10;6.28;;;;;;;10.37;53.82;99737.21;1773491;80;21582;-63
2021/12/10 06:10:14;;;;;;;7.90;6.62;;;;;;;10.37;53.80;99750.48;1772850;80;21015;-64
2021/12/10 06:12:41;;;;;;;7.45;6.33;;;;;;;10.37;53.81;99750.02;1776692;80;21014;-63
2021/12/10 06:15:09;;;;;;;7.45;6.65;;;;;;;10.37;53.80;99746.03;1771461;80;21772;-63
2021/12/10 06:17:36;;;;;;;7.45;6.65;;;;;;;10.37;53.80;99735.41;1772120;80;21038;-64
2021/12/10 06:20:07;;;;;;;7.42;6.35;;;;;;;10.39;53.81;99741.37;1752800;80;21681;-64
2021/12/10 06:22:34;;;;;;;7.72;6.92;;;;;;;10.39;53.80;99740.52;1767833;80;21026;-64
2021/12/10 06:25:00;;;;;;;6.62;5.92;;;;;;;10.39;53.79;99737.88;1757962;80;21065;-64
2021/12/10 06:27:27;;;;;;;7.70;6.35;;;;;;;10.39;53.80;99737.88;1748323;81;21106;-64
2021/12/10 06:29:54;;;;;;;6.65;5.95;;;;;;;10.40;53.92;99732.40;1761673;80;21080;-64
2021/12/10 06:32:20;;;;;;;6.75;6.05;;;;;;;10.31;54.00;99717.46;1777021;79;21056;-63
2021/12/10 06:34:46;;;;;;;6.87;6.17;;;;;;;10.41;54.02;99740.71;1819026;78;21128;-64
2021/12/10 06:37:12;;;;;;;6.72;6.03;;;;;;;10.42;54.03;99740.20;1820540;78;21520;-63
2021/12/10 06:39:39;;;;;;;8.20;6.58;;;;;;;10.42;54.04;99737.04;1812182;77;21124;-64
2021/12/10 06:42:05;;;;;;;6.72;6.03;;;;;;;10.43;54.04;99741.87;1812062;78;21081;-63
2021/12/10 06:44:32;;;;;;;6.75;6.05;;;;;;;10.45;54.02;99740.36;1750106;81;21025;-63
2021/12/10 06:46:59;;;;;;;7.20;6.37;;;;;;;10.45;54.04;99740.36;1787977;80;21564;-64
2021/12/10 06:49:25;;;;;;;7.85;6.40;;;;;;;10.46;54.03;99736.72;1813048;77;21029;-63
2021/12/10 06:51:52;;;;;;;8.18;5.83;;;;;;;10.47;54.03;99745.00;1789708;78;21548;-64
2021/12/10 06:54:18;;;;;;;8.40;5.92;;;;;;;10.46;54.00;99740.70;1788826;78;21025;-64
2021/12/10 06:56:45;;;;;;;6.72;6.03;;;;;;;10.48;53.99;99742.69;1749220;81;21096;-64
2021/12/10 06:59:13;;;;;;;7.45;6.70;;;;;;;10.48;53.98;99736.05;1818807;77;21072;-64
2021/12/10 07:01:41;;;;;;;6.75;6.10;;;;;;;10.49;54.00;99735.04;1803119;78;20960;-65
2021/12/10 07:04:12;;;;;;;6.65;5.95;;;;;;;10.50;53.98;99732.73;1792847;78;21149;-65
2021/12/10 07:06:43;;;;;;;6.72;5.90;;;;;;;10.50;54.00;99731.41;1792629;78;22152;-63
2021/12/10 07:09:14;;;;;;;6.90;6.05;;;;;;;10.51;53.99;99745.03;1808030;78;21001;-64
2021/12/10 07:11:41;;;;;;;6.78;6.08;;;;;;;10.50;53.99;99738.86;1787317;80;21530;-65
2021/12/10 07:14:07;;;;;;;7.25;6.33;;;;;;;10.52;54.00;99738.70;1801931;78;21035;-64
2021/12/10 07:16:34;;;;;;;6.87;5.97;;;;;;;10.53;53.99;99738.54;1820342;78;21990;-64
2021/12/10 07:19:03;;;;;;;7.47;6.37;;;;;;;10.53;53.97;99735.06;1818601;77;21009;-63
2021/12/10 07:21:31;;;;;;;7.08;6.12;;;;;;;10.53;53.97;99732.41;1817381;77;21045;-64
2021/12/10 07:24:01;;;;;;;6.10;5.45;;;;;;;10.54;53.98;99726.08;1819336;77;20982;-64
2021/12/10 07:26:28;;;;;;;6.45;5.78;;;;;;;10.54;53.97;99724.25;1783113;79;21045;-64
2021/12/10 07:28:55;;;;;;;6.67;6.00;;;;;;;10.56;53.97;99730.72;1789578;79;21141;-64
2021/12/10 07:31:22;;;;;;;7.15;6.03;;;;;;;10.56;53.97;99728.06;1788894;78;21061;-64
2021/12/10 07:33:48;;;;;;;6.42;5.72;;;;;;;10.56;53.97;99724.08;1790048;79;21111;-64
2021/12/10 07:36:15;;;;;;;7.47;6.67;;;;;;;10.57;53.99;99719.12;1786666;79;21014;-64
2021/12/10 07:38:41;;;;;;;6.70;6.05;;;;;;;10.58;53.96;99719.42;1786952;79;21073;-64
2021/12/10 07:41:08;;;;;;;7.05;6.35;;;;;;;10.60;53.95;99711.64;1791748;78;21117;-64
2021/12/10 07:43:36;;;;;;;6.40;5.62;;;;;;;10.60;53.95;99711.64;1791440;77;21077;-64
2021/12/10 07:46:04;;;;;;;6.37;5.55;;;;;;;10.62;53.94;99703.00;1787458;78;21045;-65
2021/12/10 07:48:32;;;;;;;6.60;5.65;;;;;;;10.63;53.93;99699.33;1803930;78;21507;-64
2021/12/10 07:51:06;;;;;;;7.22;6.25;;;;;;;10.65;53.92;99701.83;1799417;79;21120;-65
2021/12/10 07:53:33;;;;;;;6.05;5.47;;;;;;;10.65;53.90;99675.26;1791217;78;21801;-66
2021/12/10 07:56:01;;;;;;;6.67;5.58;;;;;;;10.68;53.89;99684.70;1805116;79;21033;-67
2021/12/10 07:58:30;;;;;;;7.33;6.62;;;;;;;10.70;53.86;99688.87;1805788;78;21077;-66
2021/12/10 08:00:56;;;;;;;6.92;6.03;;;;;;;10.71;53.85;99684.38;1789579;79;21628;-68
2021/12/10 08:03:22;;;;;;;6.90;6.20;;;;;;;10.73;53.79;99692.50;1792727;79;21069;-66
2021/12/10 08:05:49;;;;;;;7.37;6.47;;;;;;;10.76;53.75;99685.53;1819844;78;21136;-65
2021/12/10 08:08:16;;;;;;;6.67;5.97;;;;;;;10.78;53.70;99684.03;1823924;78;21034;-66
2021/12/10 08:10:46;;;;;;;7.45;6.58;;;;;;;10.80;53.65;99684.18;1784814;78;20978;-67
2021/12/10 08:13:14;;;;;;;6.85;5.83;;;;;;;10.81;53.64;99687.15;1805076;78;21097;-65
2021/12/10 08:15:40;;;;;;;7.60;6.80;;;;;;;10.86;53.61;99695.14;1797033;78;21068;-65
2021/12/10 08:18:07;;;;;;;6.78;5.80;;;;;;;10.89;53.56;99685.48;1808523;78;21116;-65
2021/12/10 08:20:36;;;;;;;6.45;5.85;;;;;;;10.91;53.53;99684.80;1795686;78;21068;-66
2021/12/10 08:23:04;;;;;;;7.42;6.45;;;;;;;10.94;53.51;99680.48;1800462;79;21133;-66
2021/12/10 08:25:31;;;;;;;6.53;5.80;;;;;;;10.96;53.51;99679.81;1811960;78;21006;-66
2021/12/10 08:27:57;;;;;;;6.97;6.28;;;;;;;10.99;53.47;99678.97;1805745;78;21533;-66
2021/12/10 08:30:25;;;;;;;6.20;5.60;;;;;;;11.01;53.44;99665.52;1804523;78;23286;-62
2021/12/10 08:32:54;;;;;;;6.20;5.70;;;;;;;11.04;53.39;99663.82;1811158;78;21585;-63
2021/12/10 08:35:23;;;;;;;6.35;5.75;;;;;;;11.06;53.37;99666.31;1789374;79;21037;-64
2021/12/10 08:37:51;;;;;;;6.05;5.45;;;;;;;11.08;53.35;99662.47;1808138;78;21596;-63
2021/12/10 08:40:22;;;;;;;7.67;6.37;;;;;;;11.12;53.32;99664.28;1800908;79;21114;-65
2021/12/10 08:42:50;;;;;;;6.22;5.62;;;;;;;11.14;53.27;99664.43;1807012;79;21811;-64
2021/12/10 08:45:19;;;;;;;6.28;5.62;;;;;;;11.17;53.29;99666.75;1813426;78;21094;-65
2021/12/10 08:47:47;;;;;;;6.75;6.05;;;;;;;11.21;53.23;99662.73;1806291;77;21013;-65
2021/12/10 08:50:16;;;;;;;6.80;6.10;;;;;;;11.25;53.21;99666.39;1788713;78;21029;-65
2021/12/10 08:52:43;;;;;;;5.70;5.15;;;;;;;11.29;53.16;99669.03;1801143;79;21049;-67
2021/12/10 08:55:11;;;;;;;6.17;5.50;;;;;;;11.32;53.13;99660.68;1810094;79;22116;-66
2021/12/10 08:57:38;;;;;;;6.78;6.00;;;;;;;11.35;53.07;99664.33;1798453;78;21033;-66
2021/12/10 09:00:08;;;;;;;6.25;5.37;;;;;;;11.37;53.03;99671.63;1808284;78;21060;-66
2021/12/10 09:02:37;;;;;;;6.15;5.30;;;;;;;11.37;52.99;99660.48;1806678;78;21022;-64
2021/12/10 09:05:06;;;;;;;6.85;5.55;;;;;;;11.39;52.98;99677.09;1800707;77;21542;-66
2021/12/10 09:07:32;;;;;;;6.70;6.05;;;;;;;11.41;52.93;99666.28;1807992;78;21449;-65
2021/12/10 09:10:00;;;;;;;6.55;5.83;;;;;;;11.42;52.91;99670.62;1798031;78;21073;-66
2021/12/10 09:12:27;;;;;;;6.05;5.45;;;;;;;11.44;52.91;99663.29;1809213;78;21017;-66
2021/12/10 09:14:56;;;;;;;5.87;5.25;;;;;;;11.44;52.87;99657.97;1811779;78;22012;-66
2021/12/10 09:17:27;;;;;;;5.87;5.28;;;;;;;11.45;52.86;99665.44;1805642;78;21002;-65
2021/12/10 09:19:55;;;;;;;6.12;5.33;;;;;;;11.45;52.85;99648.97;1808417;78;21514;-66
2021/12/10 09:22:21;;;;;;;6.20;5.08;;;;;;;11.45;52.83;99671.58;1811474;78;21079;-67
2021/12/10 09:24:48;;;;;;;6.15;5.55;;;;;;;11.46;52.85;99658.62;1805088;77;20997;-66
2021/12/10 09:27:14;;;;;;;5.67;5.08;;;;;;;11.47;52.87;99650.13;1810008;77;21010;-67
2021/12/10 09:29:46;;;;;;;5.92;5.33;;;;;;;11.47;52.89;99647.47;1813811;77;21827;-67
2021/12/10 09:32:15;;;;;;;7.33;5.40;;;;;;;11.47;52.89;99648.29;1805536;78;21081;-66
2021/12/10 09:34:43;;;;;;;5.85;5.35;;;;;;;11.48;52.90;99634.51;1796743;78;21071;-66
2021/12/10 09:37:10;;;;;;;5.62;5.10;;;;;;;11.48;52.92;99634.00;1810509;77;21623;-66
2021/12/10 09:39:36;;;;;;;6.10;5.42;;;;;;;11.49;52.92;99632.16;1795563;78;21020;-68
2021/12/10 09:42:04;;;;;;;6.08;5.50;;;;;;;11.48;52.92;99634.00;1799527;77;21083;-66
2021/12/10 09:44:31;;;;;;;6.30;5.70;;;;;;;11.49;52.94;99634.81;1814052;77;21145;-67
2021/12/10 09:46:58;;;;;;;5.80;5.20;;;;;;;11.49;52.94;99631.68;1809480;78;21027;-66
2021/12/10 09:49:25;;;;;;;5.78;5.17;;;;;;;11.49;52.96;99622.84;1807396;78;21564;-65
2021/12/10 09:51:56;;;;;;;6.72;5.67;;;;;;;11.49;52.94;99620.19;1810095;78;20997;-65
2021/12/10 09:54:25;;;;;;;5.90;5.30;;;;;;;11.49;52.96;99614.86;1802550;77;21039;-66
2021/12/10 09:56:57;;;;;;;6.03;5.42;;;;;;;11.47;52.97;99605.73;1803769;78;21445;-66
2021/12/10 09:59:23;;;;;;;5.80;5.30;;;;;;;11.49;52.98;99618.38;1804723;78;21012;-65
2021/12/10 10:01:52;;;;;;;6.30;5.67;;;;;;;11.50;53.00;99621.86;1792987;78;20992;-65
2021/12/10 10:04:19;;;;;;;5.60;5.08;;;;;;;11.49;53.01;99606.41;1808217;78;21055;-67
2021/12/10 10:06:57;;;;;;;6.50;5.72;;;;;;;11.50;53.04;99612.03;1812219;78;21027;-66
2021/12/10 10:09:24;;;;;;;6.97;6.30;;;;;;;11.49;53.04;99611.73;1809875;78;22003;-66
2021/12/10 10:12:02;;;;;;;6.10;5.50;;;;;;;11.49;53.02;99611.73;1807476;77;21060;-66
2021/12/10 10:14:30;;;;;;;6.30;5.67;;;;;;;11.49;53.04;99610.40;1810464;77;20981;-66
2021/12/10 10:16:56;;;;;;;6.10;5.50;;;;;;;11.48;53.04;99606.06;1811114;77;21040;-65
2021/12/10 10:19:23;;;;;;;5.95;5.35;;;;;;;11.50;53.04;99607.22;1745178;81;21571;-65
2021/12/10 10:21:53;;;;;;;6.28;5.67;;;;;;;11.49;53.04;99595.77;1808094;77;21125;-64
2021/12/10 10:24:20;;;;;;;6.00;5.40;;;;;;;11.50;53.07;99609.38;1820149;78;20982;-65
2021/12/10 10:26:54;;;;;;;5.92;5.37;;;;;;;11.50;53.08;99621.86;1806910;77;21040;-67
2021/12/10 10:29:21;;;;;;;7.42;5.80;;;;;;;11.49;53.09;99602.41;1807673;77;21026;-65
2021/12/10 10:31:58;;;;;;;6.28;5.67;;;;;;;11.48;53.10;99603.41;1819944;78;21049;-67
2021/12/10 10:34:26;;;;;;;6.33;5.72;;;;;;;11.48;53.11;99590.11;1813899;77;21274;-68
2021/12/10 10:36:52;;;;;;;6.00;5.40;;;;;;;11.48;53.16;99595.94;1810394;77;21045;-67
2021/12/10 10:39:23;;;;;;;6.12;5.45;;;;;;;11.48;53.14;99591.95;1810703;78;21030;-67
2021/12/10 10:41:54;;;;;;;6.53;5.92;;;;;;;11.46;53.18;99597.44;1806354;78;21013;-66
2021/12/10 10:44:21;;;;;;;6.87;6.17;;;;;;;11.47;53.19;99582.30;1813191;77;21070;-65
2021/12/10 10:46:49;;;;;;;6.50;5.90;;;;;;;11.46;53.19;99573.50;1808463;77;21129;-66
2021/12/10 10:49:39;;;;;;;6.30;5.70;;;;;;;11.46;53.20;99570.02;1809069;78;21923;-66
2021/12/10 10:52:20;;;;;;;7.35;6.20;;;;;;;11.46;53.21;99560.20;1820517;78;21040;-67
2021/12/10 10:54:49;;;;;;;7.45;6.10;;;;;;;11.46;53.22;99560.70;1804296;78;21036;-66
2021/12/10 10:57:24;;;;;;;6.35;5.75;;;;;;;11.44;53.24;99558.22;1824306;77;21069;-66
2021/12/10 10:59:57;;;;;;;6.53;5.92;;;;;;;11.44;53.28;99563.54;1828235;77;21123;-66
2021/12/10 11:02:27;;;;;;;6.30;5.70;;;;;;;11.45;53.30;99550.55;1807649;78;21033;-67
2021/12/10 11:04:54;;;;;;;7.00;6.30;;;;;;;11.44;53.30;99559.55;1819134;77;21049;-66
2021/12/10 11:07:26;;;;;;;6.53;5.92;;;;;;;11.45;53.33;99555.05;1792583;79;21066;-67
2021/12/10 11:10:02;;;;;;;6.72;6.03;;;;;;;11.45;53.34;99550.55;1805646;78;21040;-65
2021/12/10 11:12:36;;;;;;;7.10;5.83;;;;;;;11.45;53.34;99556.38;1810596;77;21618;-66
2021/12/10 11:15:13;;;;;;;6.53;5.83;;;;;;;11.44;53.36;99548.91;1750601;81;22253;-66
2021/12/10 11:17:48;;;;;;;7.22;6.53;;;;;;;11.44;53.38;99553.41;1743438;82;21114;-65
2021/12/10 11:20:29;;;;;;;6.62;6.00;;;;;;;11.43;53.39;99545.91;1760307;80;21101;-65
2021/12/10 11:23:02;;;;;;;6.75;6.05;;;;;;;11.42;53.40;99557.57;1770550;79;21079;-64
2021/12/10 11:25:37;;;;;;;7.15;6.12;;;;;;;11.42;53.44;99549.59;1751456;79;26703;-65
2021/12/10 11:28:07;;;;;;;6.97;6.25;;;;;;;11.42;53.47;99537.63;1759840;79;21018;-67
2021/12/10 11:30:34;;;;;;;7.00;6.22;;;;;;;11.42;53.48;99537.63;1810637;78;21065;-66
2021/12/10 11:33:11;;;;;;;7.35;6.03;;;;;;;11.40;53.49;99539.64;1810522;78;21053;-66
2021/12/10 11:35:45;;;;;;;8.33;6.95;;;;;;;11.40;53.53;99528.48;1807499;78;21042;-65
2021/12/10 11:38:15;;;;;;;7.60;6.80;;;;;;;11.40;53.54;99523.17;1807643;77;21102;-66
2021/12/10 11:40:53;;;;;;;6.90;6.20;;;;;;;11.40;53.54;99510.38;1794748;78;21514;-65
2021/12/10 11:46:51;;;;;;;6.80;6.10;;;;;;;11.40;53.56;99511.70;1770705;79;21012;-64
2021/12/10 11:49:33;;;;;;;7.70;6.72;;;;;;;11.38;53.62;99508.41;1799364;79;21022;-66
2021/12/10 11:52:12;;;;;;;6.55;5.72;;;;;;;11.37;53.63;99494.25;1808820;78;21026;-65
2021/12/10 11:54:48;;;;;;;8.48;7.00;;;;;;;11.36;53.66;99504.59;1797512;78;21068;-64